Time;durP1;ratioP1;P1;durP2;ratioP2;P2;SDS_P1;SDS_P2;PMS_P1;PMS_P2;Temp;Humidity;BMP_temperature;BMP_pressure;BME280_temperature;BME280_humidity;BME280_pressure;Samples;Min_cycle;Max_cycle;Signal;HPM_P1;HPM_P2
2022/08/18 00:00:34;;;;;;;1999.90;999.90;;;;;;;20.58;100.00;93948.53;5097919;28;20183;-61
2022/08/18 00:03:05;;;;;;;1999.90;999.90;;;;;;;20.59;100.00;93952.09;5097445;28;20195;-60
2022/08/18 00:05:31;;;;;;;1999.90;999.90;;;;;;;20.50;100.00;93974.53;5098028;28;20196;-60
2022/08/18 00:07:57;;;;;;;1999.90;999.90;;;;;;;20.51;100.00;93987.13;5098423;28;20190;-61
2022/08/18 00:10:23;;;;;;;1999.90;999.90;;;;;;;20.51;100.00;93993.47;5097740;28;20211;-60
2022/08/18 00:12:49;;;;;;;1999.90;999.90;;;;;;;20.44;100.00;93993.94;5097855;28;20215;-61
2022/08/18 00:15:16;;;;;;;1999.90;999.90;;;;;;;20.42;100.00;93995.69;5098011;28;20192;-48
2022/08/18 00:17:42;;;;;;;1999.90;999.90;;;;;;;20.47;100.00;93987.38;5097669;28;20184;-59
2022/08/18 00:20:19;;;;;;;1999.90;999.90;;;;;;;20.44;100.00;94005.03;5097967;28;20195;-60
2022/08/18 00:22:45;;;;;;;1999.90;999.90;;;;;;;20.44;100.00;94005.03;5097714;28;20193;-60
2022/08/18 00:25:12;;;;;;;1999.90;999.90;;;;;;;20.45;100.00;93997.44;5097758;28;20187;-61
2022/08/18 00:27:40;;;;;;;1999.90;999.90;;;;;;;20.42;100.00;94006.78;5097867;28;20233;-60
2022/08/18 00:30:09;;;;;;;1999.90;999.90;;;;;;;20.43;100.00;94014.59;5097706;28;20237;-61
2022/08/18 00:32:39;;;;;;;1999.90;999.90;;;;;;;20.34;100.00;94036.25;5097462;28;20235;-61
2022/08/18 00:35:12;;;;;;;1999.90;999.90;;;;;;;20.39;100.00;94052.16;5098002;28;20184;-67
2022/08/18 00:37:41;;;;;;;1999.90;999.90;;;;;;;20.36;100.00;94075.34;5097499;28;20192;-60
2022/08/18 00:40:10;;;;;;;1999.90;999.90;;;;;;;20.31;100.00;94085.16;5097367;28;20188;-59
2022/08/18 00:42:42;;;;;;;1999.90;999.90;;;;;;;20.31;100.00;94078.84;5115441;28;20312;-60
2022/08/18 00:45:17;;;;;;;1999.90;999.90;;;;;;;20.26;100.00;94088.69;5098166;28;20226;-59
2022/08/18 00:47:43;;;;;;;1999.90;999.90;;;;;;;20.28;100.00;94086.16;5097734;28;20221;-59
2022/08/18 00:50:13;;;;;;;1999.90;999.90;;;;;;;20.26;100.00;94080.34;5115232;28;20243;-59
2022/08/18 00:52:39;;;;;;;1999.90;999.90;;;;;;;20.30;100.00;94089.19;5097139;28;20211;-65
2022/08/18 00:55:04;;;;;;;1999.90;999.90;;;;;;;20.31;100.00;94090.72;5097202;28;20194;-65
2022/08/18 00:57:30;;;;;;;1999.90;999.90;;;;;;;20.34;100.00;94086.94;5097060;28;20218;-66
2022/08/18 01:00:02;;;;;;;1999.90;999.90;;;;;;;20.28;100.00;94094.47;5097124;28;20188;-65
2022/08/18 01:02:36;;;;;;;1999.90;999.90;;;;;;;20.24;100.00;94102.28;5097895;28;20191;-65
2022/08/18 01:05:21;;;;;;;1999.90;999.90;;;;;;;20.19;100.00;94116.88;5096947;28;20293;-65
2022/08/18 01:07:48;;;;;;;1999.90;999.90;;;;;;;20.13;100.00;94127.16;5097551;28;20191;-66
2022/08/18 01:10:16;;;;;;;1999.90;999.90;;;;;;;20.17;100.00;94136.00;5096905;28;20325;-61
2022/08/18 01:13:02;;;;;;;1999.90;999.90;;;;;;;20.15;100.00;94148.84;5114778;28;20218;-58
2022/08/18 01:15:28;;;;;;;1999.90;999.90;;;;;;;20.10;100.00;94135.69;5096936;28;20188;-61
2022/08/18 01:23:30;;;;;;;1999.90;999.90;;;;;;;20.03;100.00;94142.44;5115226;28;20191;-62
2022/08/18 01:26:05;;;;;;;1999.90;999.90;;;;;;;20.06;100.00;94135.91;5097192;28;20180;-61
2022/08/18 01:28:38;;;;;;;1999.90;999.90;;;;;;;20.00;100.00;94157.31;5096752;28;20202;-62
2022/08/18 01:31:04;;;;;;;1999.90;999.90;;;;;;;19.97;100.00;94144.44;5096715;28;20226;-53
2022/08/18 01:33:35;;;;;;;1999.90;999.90;;;;;;;19.88;100.00;94127.97;5096587;28;20227;-60
2022/08/18 01:36:11;;;;;;;1999.90;999.90;;;;;;;19.88;100.00;94133.53;5096929;28;20180;-61
2022/08/18 01:38:39;;;;;;;1999.90;999.90;;;;;;;19.86;100.00;94149.91;5096661;28;20187;-61
2022/08/18 01:41:06;;;;;;;1999.90;999.90;;;;;;;19.84;100.00;94146.13;5097020;28;20192;-61
2022/08/18 01:43:33;;;;;;;1999.90;999.90;;;;;;;19.80;100.00;94140.78;5096592;28;20187;-61
2022/08/18 01:46:18;;;;;;;1999.90;999.90;;;;;;;19.75;100.00;94138.75;5194228;27;21104;-59
2022/08/18 01:48:44;;;;;;;1999.90;999.90;;;;;;;19.69;100.00;94128.84;5154793;27;20174;-59
2022/08/18 01:51:11;;;;;;;1999.90;999.90;;;;;;;19.67;100.00;94115.50;5154410;27;20238;-66
2022/08/18 01:53:37;;;;;;;1999.90;999.90;;;;;;;19.63;100.00;94112.19;5154466;27;20277;-66
2022/08/18 01:56:04;;;;;;;1999.90;999.90;;;;;;;19.59;100.00;94108.88;5154309;27;20184;-66
2022/08/18 01:58:30;;;;;;;1999.90;999.90;;;;;;;19.56;100.00;94100.81;5154481;27;20264;-66
2022/08/18 02:00:57;;;;;;;1999.90;999.90;;;;;;;19.52;100.00;94099.03;5154878;27;20635;-67
2022/08/18 02:03:27;;;;;;;1999.90;999.90;;;;;;;19.50;100.00;94089.69;5154229;27;20174;-67
2022/08/18 02:05:57;;;;;;;1999.90;999.90;;;;;;;19.45;100.00;94085.63;5154694;27;20686;-55
2022/08/18 02:08:22;;;;;;;1999.90;999.90;;;;;;;19.47;100.00;94079.59;5152969;27;20178;-57
2022/08/18 02:10:47;;;;;;;1999.90;999.90;;;;;;;19.42;100.00;94083.09;5133522;27;20192;-58
2022/08/18 02:13:13;;;;;;;1999.90;999.90;;;;;;;19.42;100.00;94094.16;5133939;27;20185;-57
2022/08/18 02:15:38;;;;;;;1999.90;999.90;;;;;;;19.43;100.00;94103.97;5133797;27;20189;-57
2022/08/18 02:18:04;;;;;;;1999.90;999.90;;;;;;;19.39;100.00;94106.22;5133444;27;20178;-57
2022/08/18 02:20:29;;;;;;;1999.90;999.90;;;;;;;19.40;100.00;94113.28;5134055;27;20179;-58
2022/08/18 02:22:57;;;;;;;1999.90;999.90;;;;;;;19.41;100.00;94120.31;5151641;27;20171;-60
2022/08/18 02:25:22;;;;;;;1999.90;999.90;;;;;;;19.36;100.00;94143.19;5133211;27;20198;-50
2022/08/18 02:27:48;;;;;;;1999.90;999.90;;;;;;;19.32;100.00;94145.44;5133100;27;20182;-57
2022/08/18 02:30:16;;;;;;;1999.90;999.90;;;;;;;19.32;100.00;94143.44;5133349;27;20179;-58
2022/08/18 02:32:42;;;;;;;1999.90;999.90;;;;;;;19.33;100.00;94130.31;5151660;27;20198;-57
2022/08/18 02:35:09;;;;;;;1999.90;999.90;;;;;;;19.32;100.00;94126.03;5133006;27;20191;-57
2022/08/18 02:37:35;;;;;;;1999.90;999.90;;;;;;;19.30;100.00;94131.31;5133510;27;20179;-55
2022/08/18 02:40:00;;;;;;;1999.90;999.90;;;;;;;19.29;100.00;94146.41;5133031;27;20186;-57
2022/08/18 02:42:27;;;;;;;1999.90;999.90;;;;;;;19.27;100.00;94143.38;5133211;27;20187;-53
2022/08/18 02:44:52;;;;;;;1999.90;999.90;;;;;;;19.26;100.00;94150.91;5133165;27;20230;-58
2022/08/18 02:47:19;;;;;;;1999.90;999.90;;;;;;;19.26;100.00;94164.00;5133435;27;20224;-59
2022/08/18 02:49:44;;;;;;;1999.90;999.90;;;;;;;19.22;100.00;94142.03;5132913;27;20178;-58
2022/08/18 02:52:10;;;;;;;1999.90;999.90;;;;;;;19.23;100.00;94142.81;5132556;27;20179;-58
2022/08/18 02:54:35;;;;;;;1999.90;999.90;;;;;;;19.20;100.00;94146.56;5133038;27;20269;-59
2022/08/18 02:57:09;;;;;;;1999.90;999.90;;;;;;;19.21;100.00;94150.84;5122976;28;20572;-58
2022/08/18 02:59:36;;;;;;;1999.90;999.90;;;;;;;19.18;100.00;94151.81;5119441;28;20549;-59
2022/08/18 03:02:01;;;;;;;1999.90;999.90;;;;;;;19.15;100.00;94158.31;5118998;28;20632;-52
2022/08/18 03:04:28;;;;;;;1999.90;999.90;;;;;;;19.11;100.00;94168.84;5119079;28;20261;-57
2022/08/18 03:06:56;;;;;;;1999.90;999.90;;;;;;;19.08;100.00;94161.50;5118812;28;20179;-57
2022/08/18 03:09:21;;;;;;;1999.90;999.90;;;;;;;19.09;100.00;94151.97;5118709;28;20199;-56
2022/08/18 03:11:47;;;;;;;1999.90;999.90;;;;;;;19.10;100.00;94172.88;5118828;28;20190;-61
2022/08/18 03:14:14;;;;;;;1999.90;999.90;;;;;;;19.07;100.00;94179.38;5118792;28;20269;-59
2022/08/18 03:16:43;;;;;;;1999.90;999.90;;;;;;;19.03;100.00;94154.69;5118763;28;20187;-59
2022/08/18 03:19:08;;;;;;;1999.90;999.90;;;;;;;18.98;100.00;94162.94;5118710;28;20183;-58
2022/08/18 03:21:36;;;;;;;1999.90;999.90;;;;;;;18.96;100.00;94151.59;5118788;28;20520;-66
2022/08/18 03:24:03;;;;;;;1999.90;999.90;;;;;;;18.92;100.00;94140.75;5118556;28;20184;-68
2022/08/18 03:26:30;;;;;;;1999.90;999.90;;;;;;;18.93;100.00;94135.94;5118358;28;20179;-69
2022/08/18 03:28:58;;;;;;;1999.90;999.90;;;;;;;18.94;100.00;94137.50;5118438;28;20186;-69
2022/08/18 03:31:26;;;;;;;1999.90;999.90;;;;;;;18.91;100.00;94138.47;5118788;28;20621;-69
2022/08/18 03:33:53;;;;;;;1999.90;999.90;;;;;;;18.90;100.00;94145.22;5136697;28;20170;-69
2022/08/18 03:36:25;;;;;;;1999.90;999.90;;;;;;;18.88;100.00;94136.66;5118737;28;20187;-68
2022/08/18 03:38:52;;;;;;;1999.90;999.90;;;;;;;18.87;100.00;94138.66;5118536;28;20207;-70
2022/08/18 03:41:21;;;;;;;1999.90;999.90;;;;;;;18.85;100.00;94145.94;5118049;28;20205;-63
2022/08/18 03:43:48;;;;;;;1999.90;999.90;;;;;;;18.83;100.00;94143.66;5118510;28;20175;-61
2022/08/18 03:46:14;;;;;;;1999.90;999.90;;;;;;;18.83;100.00;94138.13;5118429;28;20183;-61
2022/08/18 03:48:42;;;;;;;1999.90;999.90;;;;;;;18.81;100.00;94134.31;5118461;28;20270;-61
2022/08/18 03:51:12;;;;;;;1999.90;999.90;;;;;;;18.83;100.00;94145.66;5136192;28;20522;-61
2022/08/18 03:53:38;;;;;;;1999.90;999.90;;;;;;;18.79;100.00;94142.34;5118148;28;20228;-61
2022/08/18 03:56:15;;;;;;;1999.90;999.90;;;;;;;18.72;100.00;94131.72;5118510;28;20183;-58
2022/08/18 03:58:44;;;;;;;1999.90;999.90;;;;;;;18.74;100.00;94124.44;5136416;28;20214;-58
2022/08/18 04:01:12;;;;;;;1999.90;999.90;;;;;;;18.71;100.00;94124.66;5118291;28;20179;-58
2022/08/18 04:03:37;;;;;;;1999.90;999.90;;;;;;;18.68;100.00;94120.84;5118453;28;20187;-59
2022/08/18 04:06:03;;;;;;;1999.90;999.90;;;;;;;18.66;100.00;94122.59;5118041;28;20198;-59
2022/08/18 04:08:29;;;;;;;1999.90;999.90;;;;;;;18.61;100.00;94115.00;5117290;27;20604;-59
2022/08/18 04:10:55;;;;;;;1999.90;999.90;;;;;;;18.63;100.00;94112.50;5117899;28;20210;-58
2022/08/18 04:13:21;;;;;;;1999.90;999.90;;;;;;;18.63;100.00;94109.72;5117791;28;20187;-58
2022/08/18 04:15:46;;;;;;;1999.90;999.90;;;;;;;18.65;100.00;94104.47;5117789;28;20190;-61
2022/08/18 04:18:11;;;;;;;1999.90;999.90;;;;;;;18.66;100.00;94090.16;5117707;28;20175;-48
2022/08/18 04:20:39;;;;;;;1999.90;999.90;;;;;;;18.70;100.00;94078.88;5117783;28;20179;-51
2022/08/18 04:23:04;;;;;;;1999.90;999.90;;;;;;;18.71;100.00;94075.63;5117585;28;20187;-51
2022/08/18 04:25:31;;;;;;;1999.90;999.90;;;;;;;18.72;100.00;94082.66;5118082;28;20210;-49
2022/08/18 04:27:59;;;;;;;1999.90;999.90;;;;;;;18.74;100.00;94062.81;5117627;28;20238;-49
2022/08/18 04:30:26;;;;;;;1999.90;999.90;;;;;;;18.80;100.00;94055.34;5117559;28;20189;-50
2022/08/18 04:32:51;;;;;;;1999.90;999.90;;;;;;;18.87;100.00;94060.44;5117573;28;20283;-61
2022/08/18 04:35:17;;;;;;;1999.90;999.90;;;;;;;19.01;100.00;94048.47;5117253;28;20283;-55
2022/08/18 04:37:42;;;;;;;1999.90;999.90;;;;;;;19.16;100.00;94065.75;5117548;28;20248;-55
2022/08/18 04:40:09;;;;;;;1999.90;999.90;;;;;;;19.35;100.00;94089.06;5117343;28;20222;-53
2022/08/18 04:42:35;;;;;;;1999.90;999.90;;;;;;;19.55;100.00;94116.66;5117901;28;20651;-59
2022/08/18 04:45:00;;;;;;;1999.90;999.90;;;;;;;19.74;100.00;94159.38;5117170;28;20203;-59
2022/08/18 04:47:26;;;;;;;1999.90;999.90;;;;;;;19.96;100.00;94192.78;5117098;28;20187;-59
2022/08/18 04:49:51;;;;;;;1999.90;999.90;;;;;;;20.09;100.00;94240.28;5117299;28;20190;-59
2022/08/18 04:55:01;;;;;;;1999.90;999.90;;;;;;;20.48;100.00;94321.03;5135914;28;20247;-70
2022/08/18 04:57:27;;;;;;;1999.90;999.90;;;;;;;20.95;100.00;94365.56;5117180;28;20282;-71
2022/08/18 04:59:53;;;;;;;1999.90;999.90;;;;;;;21.38;100.00;94428.16;5117391;28;20324;-71
2022/08/18 05:02:20;;;;;;;1999.90;999.90;;;;;;;21.90;100.00;94504.56;5117362;28;20208;-70
2022/08/18 05:04:46;;;;;;;1999.90;999.90;;;;;;;22.41;100.00;94582.16;5116989;28;20206;-71
2022/08/18 05:07:15;;;;;;;1999.90;999.90;;;;;;;23.00;100.00;94631.50;5116876;28;20179;-70
2022/08/18 05:09:41;;;;;;;1999.90;999.90;;;;;;;23.17;100.00;94676.91;5116742;28;20217;-58
2022/08/18 05:12:08;;;;;;;1999.90;999.90;;;;;;;22.89;100.00;94692.75;5117019;28;20273;-60
2022/08/18 05:14:35;;;;;;;1999.90;999.90;;;;;;;22.93;100.00;94698.84;5134949;28;20187;-61
2022/08/18 05:17:02;;;;;;;1999.90;999.90;;;;;;;23.56;100.00;94714.03;5116931;28;20179;-61
2022/08/18 05:19:29;;;;;;;1999.90;999.90;;;;;;;24.23;100.00;94749.13;5116622;28;20195;-61
2022/08/18 05:21:56;;;;;;;1999.90;999.90;;;;;;;24.41;100.00;94782.91;5116625;28;20190;-62
2022/08/18 05:24:24;;;;;;;1999.90;999.90;;;;;;;24.10;100.00;94782.34;5117129;28;20234;-62
2022/08/18 05:26:51;;;;;;;1999.90;999.90;;;;;;;24.18;100.00;94789.72;5117176;28;20182;-60
2022/08/18 05:29:17;;;;;;;1999.90;999.90;;;;;;;24.85;100.00;94812.84;5116773;28;20179;-66
2022/08/18 05:31:43;;;;;;;1999.90;999.90;;;;;;;25.39;100.00;94839.19;5117181;28;20210;-59
2022/08/18 05:34:08;;;;;;;1999.90;999.90;;;;;;;25.80;100.00;94840.03;5117143;28;20242;-58
2022/08/18 05:36:48;;;;;;;1999.90;999.90;;;;;;;26.55;100.00;94869.41;5117243;28;20187;-59
2022/08/18 05:39:16;;;;;;;1999.90;999.90;;;;;;;27.44;100.00;94882.22;5116888;28;20178;-59
2022/08/18 05:41:45;;;;;;;1999.90;999.90;;;;;;;27.77;100.00;94887.44;5116710;28;20187;-59
2022/08/18 05:44:18;;;;;;;1999.90;999.90;;;;;;;27.79;100.00;94893.28;5116731;28;20183;-58
2022/08/18 05:46:49;;;;;;;1999.90;999.90;;;;;;;27.64;100.00;94906.97;5116787;28;20204;-64
2022/08/18 05:49:15;;;;;;;1999.90;999.90;;;;;;;27.30;100.00;94905.03;5116684;28;20171;-69
2022/08/18 05:51:50;;;;;;;1999.90;999.90;;;;;;;27.13;100.00;94910.03;5116796;28;20236;-69
2022/08/18 05:57:06;;;;;;;1999.90;999.90;;;;;;;25.65;100.00;94894.78;5134966;28;20186;-70
2022/08/18 05:59:36;;;;;;;1999.90;999.90;;;;;;;25.35;100.00;94894.63;5116277;28;20186;-68
2022/08/18 06:02:10;;;;;;;1999.90;999.90;;;;;;;24.90;100.00;94884.72;5116182;28;20179;-69
2022/08/18 06:04:49;;;;;;;1999.90;999.90;;;;;;;24.76;100.00;94874.56;5116183;28;20195;-59
2022/08/18 06:07:21;;;;;;;1999.90;999.90;;;;;;;24.53;100.00;94862.59;5116327;28;20251;-67
2022/08/18 06:09:52;;;;;;;1999.90;999.90;;;;;;;24.08;100.00;94851.88;5116017;28;20218;-65
2022/08/18 06:12:30;;;;;;;1999.90;999.90;;;;;;;24.19;100.00;94851.91;5116011;28;20187;-64
2022/08/18 06:15:02;;;;;;;1999.90;999.90;;;;;;;24.17;100.00;94837.69;5115766;28;20207;-67
2022/08/18 06:17:43;;;;;;;1999.90;999.90;;;;;;;24.01;100.00;94852.38;5116100;28;20210;-64
2022/08/18 06:20:55;;;;;;;1999.90;999.90;;;;;;;24.03;100.00;94841.44;5116360;28;20227;-64
2022/08/18 06:23:45;;;;;;;1999.90;999.90;;;;;;;23.96;100.00;94850.34;5070416;28;20213;-59
2022/08/18 06:26:20;;;;;;;1999.90;999.90;;;;;;;23.76;100.00;94839.31;5116490;28;20293;-58
2022/08/18 06:28:51;;;;;;;1999.90;999.90;;;;;;;23.51;100.00;94821.50;5116551;28;20288;-59
2022/08/18 06:31:31;;;;;;;1999.90;999.90;;;;;;;23.33;100.00;94818.38;5117312;28;20187;-60
2022/08/18 06:34:07;;;;;;;1999.90;999.90;;;;;;;23.14;100.00;94797.72;5119900;28;20187;-58
2022/08/18 06:36:38;;;;;;;1999.90;999.90;;;;;;;22.92;100.00;94776.09;5119862;28;20266;-58
2022/08/18 06:39:25;;;;;;;1999.90;999.90;;;;;;;22.90;100.00;94773.03;5119338;28;20183;-58
2022/08/18 06:41:52;;;;;;;1999.90;999.90;;;;;;;22.90;100.00;94755.56;5119760;28;20187;-59
2022/08/18 06:44:27;;;;;;;1999.90;999.90;;;;;;;22.72;100.00;94733.69;5119045;28;20290;-58
2022/08/18 06:47:03;;;;;;;1999.90;999.90;;;;;;;22.86;100.00;94732.75;5119448;28;20258;-59
2022/08/18 06:49:40;;;;;;;1999.90;999.90;;;;;;;23.03;100.00;94744.72;5119815;28;20190;-58
2022/08/18 06:52:37;;;;;;;1999.90;999.90;;;;;;;23.07;100.00;94759.19;5119597;28;20187;-58
2022/08/18 06:55:14;;;;;;;1999.90;999.90;;;;;;;23.02;100.00;94755.09;5117477;28;20232;-58
2022/08/18 06:57:56;;;;;;;1999.90;999.90;;;;;;;23.21;100.00;94744.31;5119622;28;20182;-58
2022/08/18 07:00:25;;;;;;;1999.90;999.90;;;;;;;23.44;100.00;94738.34;5119146;28;20222;-58
2022/08/18 07:02:57;;;;;;;1999.90;999.90;;;;;;;23.47;100.00;94742.91;5119390;28;20190;-63
2022/08/18 07:05:29;;;;;;;1999.90;999.90;;;;;;;23.66;100.00;94759.94;5119415;28;20217;-63
2022/08/18 07:08:28;;;;;;;1999.90;999.90;;;;;;;23.69;100.00;94759.69;5119326;28;20187;-63
2022/08/18 07:10:53;;;;;;;1999.90;999.90;;;;;;;24.19;100.00;94773.75;5115491;28;20199;-63
2022/08/18 07:13:25;;;;;;;1999.90;999.90;;;;;;;24.65;100.00;94799.13;5118924;28;20184;-63
2022/08/18 07:15:52;;;;;;;1999.90;999.90;;;;;;;24.68;100.00;94812.88;5118505;28;20187;-63
2022/08/18 07:18:27;;;;;;;1999.90;999.90;;;;;;;25.13;100.00;94813.56;5118735;28;20191;-68
2022/08/18 07:21:01;;;;;;;1999.90;999.90;;;;;;;25.26;100.00;94830.53;5118942;28;20182;-60
2022/08/18 07:23:32;;;;;;;1999.90;999.90;;;;;;;25.19;100.00;94836.66;5118609;28;20247;-60
2022/08/18 07:26:11;;;;;;;1999.90;999.90;;;;;;;25.14;100.00;94851.41;5118594;28;20243;-60
2022/08/18 07:28:38;;;;;;;1999.90;999.90;;;;;;;25.03;100.00;94845.84;5118541;28;20323;-59
2022/08/18 07:31:30;;;;;;;1999.90;999.90;;;;;;;25.26;100.00;94858.50;5118338;28;20254;-60
2022/08/18 07:34:01;;;;;;;1999.90;999.90;;;;;;;25.96;100.00;94864.41;5118397;28;20183;-60
2022/08/18 07:36:34;;;;;;;1999.90;999.90;;;;;;;26.98;100.00;94873.94;5118914;28;20199;-68
2022/08/18 07:39:07;;;;;;;1999.90;999.90;;;;;;;28.52;100.00;94893.94;5118402;28;20187;-58
2022/08/18 07:41:39;;;;;;;1999.90;999.90;;;;;;;29.58;100.00;94893.75;5118726;28;20187;-58
2022/08/18 07:44:16;;;;;;;1999.90;999.90;;;;;;;29.96;100.00;94911.97;5118337;28;20240;-58
2022/08/18 07:47:09;;;;;;;1999.90;999.90;;;;;;;30.76;100.00;94903.66;5118895;28;20206;-58
2022/08/18 07:49:36;;;;;;;1999.90;999.90;;;;;;;30.93;100.00;94893.50;5088411;28;20294;-58
2022/08/18 07:52:12;;;;;;;1999.90;999.90;;;;;;;31.47;99.10;94895.53;5118257;28;20179;-58
2022/08/18 07:54:57;;;;;;;1999.90;999.90;;;;;;;30.32;100.00;94901.78;5118819;28;20209;-62
2022/08/18 07:57:36;;;;;;;1999.90;999.90;;;;;;;30.37;100.00;94903.75;5118575;28;20232;-61
2022/08/18 08:00:08;;;;;;;1999.90;999.90;;;;;;;30.60;100.00;94913.97;5118428;28;20266;-61
2022/08/18 08:03:08;;;;;;;1999.90;999.90;;;;;;;31.06;96.48;94912.44;5118275;28;20240;-61
2022/08/18 08:05:41;;;;;;;1999.90;999.90;;;;;;;31.29;93.51;94913.44;5117801;28;20195;-62
2022/08/18 08:08:23;;;;;;;1999.90;999.90;;;;;;;30.52;98.57;94915.94;5118564;28;20226;-61
2022/08/18 08:11:07;;;;;;;1999.90;999.90;;;;;;;30.75;95.47;94904.97;5118193;28;20203;-61
2022/08/18 08:13:42;;;;;;;1999.90;999.90;;;;;;;30.06;100.00;94907.44;5136207;28;20183;-58
2022/08/18 08:16:23;;;;;;;1999.90;999.90;;;;;;;30.77;98.64;94913.66;5118261;28;20250;-58
2022/08/18 08:19:04;;;;;;;1999.90;999.90;;;;;;;31.76;89.03;94911.19;5118388;28;20187;-58
2022/08/18 08:21:49;;;;;;;1999.90;999.90;;;;;;;32.27;83.60;94917.75;5117942;28;20194;-59
2022/08/18 08:24:40;;;;;;;1999.90;999.90;;;;;;;32.58;81.48;94910.94;5117888;28;20236;-58
2022/08/18 08:27:38;;;;;;;1999.90;999.90;;;;;;;33.22;75.72;94917.16;5118316;28;20191;-58
2022/08/18 08:30:11;;;;;;;1999.90;999.90;;;;;;;33.35;74.69;94914.22;5117983;28;20198;-59
2022/08/18 08:33:22;;;;;;;1999.90;999.90;;;;;;;32.79;77.61;94905.16;5118155;28;20179;-61
2022/08/18 08:36:12;;;;;;;1999.90;999.90;;;;;;;32.72;77.99;94903.84;5117852;28;20214;-57
2022/08/18 08:38:46;;;;;;;1999.90;999.90;;;;;;;32.27;80.59;94897.97;5117516;28;20187;-57
2022/08/18 08:41:34;;;;;;;1999.90;999.90;;;;;;;31.61;84.23;94885.63;5117582;28;20183;-57
2022/08/18 08:44:30;;;;;;;1999.90;999.90;;;;;;;32.14;83.10;94877.53;5117634;28;20278;-57
2022/08/18 08:47:03;;;;;;;1999.90;999.90;;;;;;;32.17;81.72;94871.53;5106957;28;20195;-58
2022/08/18 08:49:53;;;;;;;1999.90;999.90;;;;;;;32.38;81.00;94883.53;5117466;28;20200;-68
2022/08/18 08:52:25;;;;;;;1999.90;999.90;;;;;;;32.39;78.92;94893.53;5117178;28;20231;-57
2022/08/18 08:55:05;;;;;;;1999.90;999.90;;;;;;;32.48;78.17;94890.16;5116410;28;20175;-57
2022/08/18 08:57:37;;;;;;;1999.90;999.90;;;;;;;33.90;71.34;94899.50;5116985;28;20190;-57
2022/08/18 09:00:05;;;;;;;1999.90;999.90;;;;;;;35.58;63.77;94875.63;5117762;28;20175;-57
2022/08/18 09:03:11;;;;;;;1999.90;999.90;;;;;;;35.29;57.64;94870.94;5117387;28;20183;-57
2022/08/18 09:05:57;;;;;;;1999.90;999.90;;;;;;;35.12;57.78;94874.44;5116859;28;20234;-57
2022/08/18 09:08:41;;;;;;;1999.90;999.90;;;;;;;35.25;54.76;94870.56;5117012;27;20244;-61
2022/08/18 09:11:20;;;;;;;1999.90;999.90;;;;;;;35.21;56.38;94864.53;5117433;28;20190;-61
2022/08/18 09:14:16;;;;;;;1999.90;999.90;;;;;;;35.22;57.03;94861.13;5116999;28;20289;-61
2022/08/18 09:17:18;;;;;;;1999.90;999.90;;;;;;;35.90;52.16;94854.91;5134888;28;20167;-61
2022/08/18 09:20:06;;;;;;;1999.90;999.90;;;;;;;36.40;50.64;94873.34;5116585;28;20291;-61
2022/08/18 09:22:50;;;;;;;1999.90;999.90;;;;;;;37.31;45.83;94875.75;5116911;28;20242;-61
2022/08/18 09:25:40;;;;;;;1999.90;999.90;;;;;;;36.57;46.44;94891.16;5116799;28;20207;-62
2022/08/18 09:28:27;;;;;;;1999.90;999.90;;;;;;;37.10;44.40;94892.59;5117479;28;20187;-58
2022/08/18 09:31:02;;;;;;;1999.90;999.90;;;;;;;35.09;51.90;94891.88;5116870;28;20201;-59
2022/08/18 09:33:42;;;;;;;1999.90;999.90;;;;;;;34.88;54.78;94877.25;5117185;28;20194;-59
2022/08/18 09:36:37;;;;;;;1999.90;999.90;;;;;;;34.77;53.53;94854.97;5116745;28;20263;-59
2022/08/18 09:41:59;;;;;;;1999.90;999.90;;;;;;;35.61;51.98;94842.47;5135011;28;20193;-59
2022/08/18 09:44:50;;;;;;;1999.90;999.90;;;;;;;35.46;49.98;94851.09;5116416;28;20209;-67
2022/08/18 09:47:19;;;;;;;1999.90;999.90;;;;;;;35.35;50.27;94862.94;5111479;28;20252;-60
2022/08/18 09:49:52;;;;;;;1999.90;999.90;;;;;;;35.18;52.68;94849.38;5116351;28;20231;-60
2022/08/18 09:52:21;;;;;;;1999.90;999.90;;;;;;;34.51;54.46;94866.78;5116288;28;20183;-60
2022/08/18 09:54:57;;;;;;;1999.90;999.90;;;;;;;34.95;54.60;94854.47;5116336;28;20278;-60
2022/08/18 09:57:27;;;;;;;1999.90;999.90;;;;;;;35.37;51.85;94854.59;5116445;28;20183;-59
2022/08/18 10:00:16;;;;;;;1999.90;999.90;;;;;;;35.71;51.06;94866.03;5116415;28;20175;-60
2022/08/18 10:02:41;;;;;;;1999.90;999.90;;;;;;;35.75;51.15;94872.06;5116694;28;20215;-60
2022/08/18 10:05:16;;;;;;;1999.90;999.90;;;;;;;36.27;48.28;94871.59;5116448;27;20186;-66
2022/08/18 10:07:48;;;;;;;1999.90;999.90;;;;;;;36.08;48.66;94853.56;5119269;28;20186;-58
2022/08/18 10:10:36;;;;;;;1999.90;999.90;;;;;;;36.45;48.84;94858.13;5119803;28;20199;-58
2022/08/18 10:13:07;;;;;;;1999.90;999.90;;;;;;;35.00;52.50;94864.88;5120217;28;20325;-59
2022/08/18 10:15:42;;;;;;;1999.90;999.90;;;;;;;33.82;57.53;94869.03;5120495;28;20203;-59
2022/08/18 10:18:25;;;;;;;1999.90;999.90;;;;;;;34.15;57.97;94869.94;5120171;28;20251;-58
2022/08/18 10:21:16;;;;;;;1999.90;999.90;;;;;;;34.63;55.25;94879.25;5120207;28;20191;-56
2022/08/18 10:23:54;;;;;;;1999.90;999.90;;;;;;;35.08;52.71;94879.00;5120208;28;20179;-67
2022/08/18 10:26:32;;;;;;;1999.90;999.90;;;;;;;35.44;50.10;94876.53;5137942;28;20189;-62
2022/08/18 10:29:10;;;;;;;1999.90;999.90;;;;;;;35.34;50.21;94884.16;5119597;28;20189;-63
2022/08/18 10:31:58;;;;;;;1999.90;999.90;;;;;;;34.76;50.97;94884.66;5120068;28;20179;-62
2022/08/18 10:34:47;;;;;;;1999.90;999.90;;;;;;;34.66;51.06;94883.78;5072371;28;20259;-62
2022/08/18 10:37:18;;;;;;;1999.90;999.90;;;;;;;33.82;55.05;94873.94;5119811;28;20187;-62
2022/08/18 10:39:48;;;;;;;1999.90;999.90;;;;;;;35.01;54.84;94879.81;5119491;28;20278;-58
2022/08/18 10:42:41;;;;;;;1999.90;999.90;;;;;;;36.16;48.21;94862.78;5119482;28;20172;-59
2022/08/18 10:45:13;;;;;;;1999.90;999.90;;;;;;;36.04;45.79;94853.22;5119532;28;20179;-63
2022/08/18 10:47:40;;;;;;;1999.90;999.90;;;;;;;34.79;52.83;94857.97;5119243;28;20179;-63
2022/08/18 10:50:17;;;;;;;1999.90;999.90;;;;;;;34.09;55.92;94862.97;5119274;28;20179;-63
2022/08/18 10:53:04;;;;;;;1999.90;999.90;;;;;;;35.09;52.56;94847.19;5119353;28;20171;-63
2022/08/18 10:55:48;;;;;;;1999.90;999.90;;;;;;;35.92;49.15;94843.69;5119037;28;20234;-62
2022/08/18 10:58:20;;;;;;;1999.90;999.90;;;;;;;36.11;46.25;94838.16;5119641;28;20273;-58
2022/08/18 11:00:51;;;;;;;1999.90;999.90;;;;;;;35.61;48.33;94839.63;5119792;28;20190;-58
2022/08/18 11:03:34;;;;;;;1999.90;999.90;;;;;;;34.96;51.63;94832.53;5119221;28;20183;-57
2022/08/18 11:06:12;;;;;;;1999.90;999.90;;;;;;;34.33;52.87;94822.63;5119133;28;20187;-58
2022/08/18 11:08:44;;;;;;;1999.90;999.90;;;;;;;34.17;55.62;94826.81;5118982;27;20199;-56
2022/08/18 11:11:11;;;;;;;1999.90;999.90;;;;;;;34.42;55.85;94836.19;5119249;28;20179;-57
2022/08/18 11:14:02;;;;;;;1999.90;999.90;;;;;;;33.64;57.84;94833.34;5119216;28;20190;-57
2022/08/18 11:16:51;;;;;;;1999.90;999.90;;;;;;;33.11;61.27;94821.25;5118549;27;20206;-59
2022/08/18 11:19:21;;;;;;;1999.90;999.90;;;;;;;32.96;62.42;94814.84;5137049;28;20176;-59
2022/08/18 11:21:48;;;;;;;1999.90;999.90;;;;;;;32.65;64.27;94814.00;5118773;28;20183;-59
2022/08/18 11:24:25;;;;;;;1999.90;999.90;;;;;;;32.57;64.19;94818.91;5118630;28;20179;-59
2022/08/18 11:26:52;;;;;;;1999.90;999.90;;;;;;;32.35;66.34;94799.78;5119356;28;20186;-59
2022/08/18 11:29:32;;;;;;;1999.90;999.90;;;;;;;30.84;72.59;94788.81;5118697;28;20186;-59